sensor_id;sensor_type;location;lat;lon;timestamp;P1;durP1;ratioP1;P2;durP2;ratioP2
36351;SDS011;22382;44.768;17.206;2024-03-22T00:01:54;15.45;;;9.60;;
36351;SDS011;22382;44.768;17.206;2024-03-22T00:04:20;12.95;;;8.38;;
36351;SDS011;22382;44.768;17.206;2024-03-22T00:06:47;10.85;;;7.25;;
36351;SDS011;22382;44.768;17.206;2024-03-22T00:09:15;9.43;;;6.85;;
36351;SDS011;22382;44.768;17.206;2024-03-22T00:11:42;10.55;;;7.13;;
36351;SDS011;22382;44.768;17.206;2024-03-22T00:14:09;11.18;;;7.10;;
36351;SDS011;22382;44.768;17.206;2024-03-22T00:16:36;11.15;;;6.65;;
36351;SDS011;22382;44.768;17.206;2024-03-22T00:19:03;11.52;;;6.95;;
36351;SDS011;22382;44.768;17.206;2024-03-22T00:21:29;10.55;;;7.32;;
36351;SDS011;22382;44.768;17.206;2024-03-22T00:23:58;11.57;;;7.35;;
36351;SDS011;22382;44.768;17.206;2024-03-22T00:26:26;12.25;;;8.18;;
36351;SDS011;22382;44.768;17.206;2024-03-22T00:28:53;11.20;;;7.88;;
36351;SDS011;22382;44.768;17.206;2024-03-22T00:31:19;10.60;;;7.18;;
36351;SDS011;22382;44.768;17.206;2024-03-22T00:33:45;10.10;;;6.10;;
36351;SDS011;22382;44.768;17.206;2024-03-22T00:36:11;10.73;;;7.28;;
36351;SDS011;22382;44.768;17.206;2024-03-22T00:38:37;9.27;;;6.90;;
36351;SDS011;22382;44.768;17.206;2024-03-22T00:41:03;11.65;;;7.40;;
36351;SDS011;22382;44.768;17.206;2024-03-22T00:43:30;11.45;;;7.63;;
36351;SDS011;22382;44.768;17.206;2024-03-22T00:45:56;11.23;;;7.65;;
36351;SDS011;22382;44.768;17.206;2024-03-22T00:48:22;12.27;;;7.57;;
36351;SDS011;22382;44.768;17.206;2024-03-22T00:50:48;9.73;;;6.85;;
36351;SDS011;22382;44.768;17.206;2024-03-22T00:53:14;11.43;;;6.72;;
36351;SDS011;22382;44.768;17.206;2024-03-22T00:55:40;12.82;;;8.38;;
36351;SDS011;22382;44.768;17.206;2024-03-22T00:58:06;10.65;;;7.50;;
36351;SDS011;22382;44.768;17.206;2024-03-22T01:00:32;14.27;;;8.00;;
36351;SDS011;22382;44.768;17.206;2024-03-22T01:02:58;10.35;;;7.68;;
36351;SDS011;22382;44.768;17.206;2024-03-22T01:05:24;9.50;;;7.05;;
36351;SDS011;22382;44.768;17.206;2024-03-22T01:07:51;9.40;;;7.35;;
36351;SDS011;22382;44.768;17.206;2024-03-22T01:10:17;12.65;;;8.00;;
36351;SDS011;22382;44.768;17.206;2024-03-22T01:12:44;11.88;;;7.90;;
36351;SDS011;22382;44.768;17.206;2024-03-22T01:15:10;9.18;;;7.03;;
36351;SDS011;22382;44.768;17.206;2024-03-22T01:17:36;11.40;;;8.05;;
36351;SDS011;22382;44.768;17.206;2024-03-22T01:20:02;9.07;;;6.97;;
36351;SDS011;22382;44.768;17.206;2024-03-22T01:22:29;11.98;;;8.45;;
36351;SDS011;22382;44.768;17.206;2024-03-22T01:24:55;13.82;;;8.70;;
36351;SDS011;22382;44.768;17.206;2024-03-22T01:27:21;12.40;;;8.68;;
36351;SDS011;22382;44.768;17.206;2024-03-22T01:29:47;11.82;;;8.18;;
36351;SDS011;22382;44.768;17.206;2024-03-22T01:32:13;12.50;;;8.48;;
36351;SDS011;22382;44.768;17.206;2024-03-22T01:34:39;15.10;;;9.13;;
36351;SDS011;22382;44.768;17.206;2024-03-22T01:37:05;12.65;;;7.40;;
36351;SDS011;22382;44.768;17.206;2024-03-22T01:39:32;12.05;;;8.95;;
36351;SDS011;22382;44.768;17.206;2024-03-22T01:41:58;14.82;;;9.40;;
36351;SDS011;22382;44.768;17.206;2024-03-22T01:44:27;16.77;;;8.82;;
36351;SDS011;22382;44.768;17.206;2024-03-22T01:46:54;12.60;;;9.02;;
36351;SDS011;22382;44.768;17.206;2024-03-22T01:49:20;12.85;;;9.18;;
36351;SDS011;22382;44.768;17.206;2024-03-22T01:51:47;9.95;;;7.95;;
36351;SDS011;22382;44.768;17.206;2024-03-22T01:54:14;14.50;;;9.30;;
36351;SDS011;22382;44.768;17.206;2024-03-22T01:56:42;14.52;;;8.85;;
36351;SDS011;22382;44.768;17.206;2024-03-22T01:59:08;12.48;;;9.45;;
36351;SDS011;22382;44.768;17.206;2024-03-22T02:01:35;13.88;;;9.07;;
36351;SDS011;22382;44.768;17.206;2024-03-22T02:04:01;13.45;;;8.50;;
36351;SDS011;22382;44.768;17.206;2024-03-22T02:06:28;11.30;;;7.40;;
36351;SDS011;22382;44.768;17.206;2024-03-22T02:08:54;10.32;;;7.63;;
36351;SDS011;22382;44.768;17.206;2024-03-22T02:11:22;11.25;;;8.07;;
36351;SDS011;22382;44.768;17.206;2024-03-22T02:13:48;12.55;;;8.93;;
36351;SDS011;22382;44.768;17.206;2024-03-22T02:16:14;12.45;;;8.93;;
36351;SDS011;22382;44.768;17.206;2024-03-22T02:18:42;14.45;;;8.73;;
36351;SDS011;22382;44.768;17.206;2024-03-22T02:21:09;12.13;;;8.95;;
36351;SDS011;22382;44.768;17.206;2024-03-22T02:23:37;13.25;;;9.23;;
36351;SDS011;22382;44.768;17.206;2024-03-22T02:26:05;14.32;;;8.90;;
36351;SDS011;22382;44.768;17.206;2024-03-22T02:28:32;11.60;;;8.48;;
36351;SDS011;22382;44.768;17.206;2024-03-22T02:30:59;15.98;;;9.48;;
36351;SDS011;22382;44.768;17.206;2024-03-22T02:33:26;12.40;;;8.80;;
36351;SDS011;22382;44.768;17.206;2024-03-22T02:35:52;13.00;;;8.50;;
36351;SDS011;22382;44.768;17.206;2024-03-22T02:38:18;12.32;;;8.95;;
36351;SDS011;22382;44.768;17.206;2024-03-22T02:40:45;11.45;;;8.23;;
36351;SDS011;22382;44.768;17.206;2024-03-22T02:43:12;11.98;;;7.72;;
36351;SDS011;22382;44.768;17.206;2024-03-22T02:45:38;12.80;;;8.95;;
36351;SDS011;22382;44.768;17.206;2024-03-22T02:48:05;13.25;;;8.80;;
36351;SDS011;22382;44.768;17.206;2024-03-22T02:50:35;11.75;;;8.15;;
36351;SDS011;22382;44.768;17.206;2024-03-22T02:53:02;9.15;;;7.30;;
36351;SDS011;22382;44.768;17.206;2024-03-22T02:55:30;12.07;;;8.30;;
36351;SDS011;22382;44.768;17.206;2024-03-22T02:58:01;14.55;;;9.32;;
36351;SDS011;22382;44.768;17.206;2024-03-22T03:00:28;12.30;;;8.07;;
36351;SDS011;22382;44.768;17.206;2024-03-22T03:02:54;14.60;;;9.23;;
36351;SDS011;22382;44.768;17.206;2024-03-22T03:05:20;11.73;;;8.20;;
36351;SDS011;22382;44.768;17.206;2024-03-22T03:07:47;11.77;;;8.35;;
36351;SDS011;22382;44.768;17.206;2024-03-22T03:10:14;13.20;;;8.45;;
36351;SDS011;22382;44.768;17.206;2024-03-22T03:12:40;13.60;;;8.70;;
36351;SDS011;22382;44.768;17.206;2024-03-22T03:15:06;11.20;;;8.15;;
36351;SDS011;22382;44.768;17.206;2024-03-22T03:17:33;10.75;;;8.23;;
36351;SDS011;22382;44.768;17.206;2024-03-22T03:19:59;12.00;;;8.35;;
36351;SDS011;22382;44.768;17.206;2024-03-22T03:22:25;10.43;;;7.07;;
36351;SDS011;22382;44.768;17.206;2024-03-22T03:24:51;11.18;;;8.02;;
36351;SDS011;22382;44.768;17.206;2024-03-22T03:27:17;10.77;;;7.90;;
36351;SDS011;22382;44.768;17.206;2024-03-22T03:29:43;14.23;;;9.05;;
36351;SDS011;22382;44.768;17.206;2024-03-22T03:32:09;13.73;;;8.60;;
36351;SDS011;22382;44.768;17.206;2024-03-22T03:34:35;9.65;;;7.10;;
36351;SDS011;22382;44.768;17.206;2024-03-22T03:37:01;11.43;;;7.72;;
36351;SDS011;22382;44.768;17.206;2024-03-22T03:39:27;12.75;;;8.07;;
36351;SDS011;22382;44.768;17.206;2024-03-22T03:41:54;11.55;;;8.25;;
36351;SDS011;22382;44.768;17.206;2024-03-22T03:44:21;11.20;;;7.75;;
36351;SDS011;22382;44.768;17.206;2024-03-22T03:46:47;8.93;;;6.63;;
36351;SDS011;22382;44.768;17.206;2024-03-22T03:49:13;11.60;;;7.75;;
36351;SDS011;22382;44.768;17.206;2024-03-22T03:51:39;11.77;;;8.68;;
36351;SDS011;22382;44.768;17.206;2024-03-22T03:54:05;12.82;;;8.52;;
36351;SDS011;22382;44.768;17.206;2024-03-22T03:56:31;11.20;;;7.13;;
36351;SDS011;22382;44.768;17.206;2024-03-22T03:58:57;11.15;;;7.30;;
36351;SDS011;22382;44.768;17.206;2024-03-22T04:01:23;10.32;;;7.32;;
36351;SDS011;22382;44.768;17.206;2024-03-22T04:03:49;10.60;;;7.50;;
36351;SDS011;22382;44.768;17.206;2024-03-22T04:06:15;9.40;;;6.72;;
36351;SDS011;22382;44.768;17.206;2024-03-22T04:08:42;10.40;;;7.18;;
36351;SDS011;22382;44.768;17.206;2024-03-22T04:11:09;11.52;;;7.70;;
36351;SDS011;22382;44.768;17.206;2024-03-22T04:13:37;11.23;;;7.15;;
36351;SDS011;22382;44.768;17.206;2024-03-22T04:16:03;9.57;;;7.43;;
36351;SDS011;22382;44.768;17.206;2024-03-22T04:18:30;10.20;;;7.65;;
36351;SDS011;22382;44.768;17.206;2024-03-22T04:20:57;10.93;;;7.38;;
36351;SDS011;22382;44.768;17.206;2024-03-22T04:23:24;12.07;;;7.15;;
36351;SDS011;22382;44.768;17.206;2024-03-22T04:25:52;11.35;;;7.63;;
36351;SDS011;22382;44.768;17.206;2024-03-22T04:28:20;10.45;;;7.28;;
36351;SDS011;22382;44.768;17.206;2024-03-22T04:31:02;13.85;;;9.20;;
36351;SDS011;22382;44.768;17.206;2024-03-22T04:33:31;15.50;;;9.35;;
36351;SDS011;22382;44.768;17.206;2024-03-22T04:35:58;14.95;;;9.38;;
36351;SDS011;22382;44.768;17.206;2024-03-22T04:38:25;13.57;;;9.20;;
36351;SDS011;22382;44.768;17.206;2024-03-22T04:40:52;16.95;;;10.82;;
36351;SDS011;22382;44.768;17.206;2024-03-22T04:43:18;13.43;;;9.55;;
36351;SDS011;22382;44.768;17.206;2024-03-22T04:45:45;25.98;;;17.33;;
36351;SDS011;22382;44.768;17.206;2024-03-22T04:48:16;23.88;;;16.13;;
36351;SDS011;22382;44.768;17.206;2024-03-22T04:50:43;24.27;;;16.42;;
36351;SDS011;22382;44.768;17.206;2024-03-22T04:53:10;23.30;;;15.45;;
36351;SDS011;22382;44.768;17.206;2024-03-22T04:55:36;23.13;;;14.57;;
36351;SDS011;22382;44.768;17.206;2024-03-22T04:58:03;21.15;;;15.43;;
36351;SDS011;22382;44.768;17.206;2024-03-22T05:00:29;21.50;;;14.55;;
36351;SDS011;22382;44.768;17.206;2024-03-22T05:02:56;17.77;;;12.73;;
36351;SDS011;22382;44.768;17.206;2024-03-22T05:05:22;20.08;;;12.98;;
36351;SDS011;22382;44.768;17.206;2024-03-22T05:07:48;17.17;;;11.73;;
36351;SDS011;22382;44.768;17.206;2024-03-22T05:10:14;13.18;;;10.18;;
36351;SDS011;22382;44.768;17.206;2024-03-22T05:12:42;18.52;;;11.00;;
36351;SDS011;22382;44.768;17.206;2024-03-22T05:15:08;11.82;;;8.75;;
36351;SDS011;22382;44.768;17.206;2024-03-22T05:17:34;12.50;;;9.63;;
36351;SDS011;22382;44.768;17.206;2024-03-22T05:20:01;13.93;;;9.15;;
36351;SDS011;22382;44.768;17.206;2024-03-22T05:22:27;11.18;;;8.60;;
36351;SDS011;22382;44.768;17.206;2024-03-22T05:24:54;11.85;;;8.25;;
36351;SDS011;22382;44.768;17.206;2024-03-22T05:27:20;10.45;;;7.95;;
36351;SDS011;22382;44.768;17.206;2024-03-22T05:29:46;13.68;;;8.80;;
36351;SDS011;22382;44.768;17.206;2024-03-22T05:32:12;12.23;;;8.30;;
36351;SDS011;22382;44.768;17.206;2024-03-22T05:34:38;9.88;;;7.75;;
36351;SDS011;22382;44.768;17.206;2024-03-22T05:37:04;12.40;;;8.30;;
36351;SDS011;22382;44.768;17.206;2024-03-22T05:39:30;11.60;;;8.48;;
36351;SDS011;22382;44.768;17.206;2024-03-22T05:41:56;11.60;;;8.48;;
36351;SDS011;22382;44.768;17.206;2024-03-22T05:44:22;12.65;;;8.73;;
36351;SDS011;22382;44.768;17.206;2024-03-22T05:46:49;14.95;;;9.63;;
36351;SDS011;22382;44.768;17.206;2024-03-22T05:49:15;11.90;;;9.40;;
36351;SDS011;22382;44.768;17.206;2024-03-22T05:51:41;11.77;;;9.02;;
36351;SDS011;22382;44.768;17.206;2024-03-22T05:54:08;13.18;;;8.57;;
36351;SDS011;22382;44.768;17.206;2024-03-22T05:56:35;10.68;;;7.72;;
36351;SDS011;22382;44.768;17.206;2024-03-22T05:59:01;12.40;;;8.40;;
36351;SDS011;22382;44.768;17.206;2024-03-22T06:01:28;12.73;;;8.10;;
36351;SDS011;22382;44.768;17.206;2024-03-22T06:03:54;14.88;;;10.13;;
36351;SDS011;22382;44.768;17.206;2024-03-22T06:06:21;12.38;;;9.25;;
36351;SDS011;22382;44.768;17.206;2024-03-22T06:08:50;13.98;;;9.25;;
36351;SDS011;22382;44.768;17.206;2024-03-22T06:11:22;18.55;;;12.07;;
36351;SDS011;22382;44.768;17.206;2024-03-22T06:13:48;12.32;;;8.75;;
36351;SDS011;22382;44.768;17.206;2024-03-22T06:16:16;13.05;;;9.27;;
36351;SDS011;22382;44.768;17.206;2024-03-22T06:18:42;11.57;;;8.02;;
36351;SDS011;22382;44.768;17.206;2024-03-22T06:21:08;14.25;;;9.50;;
36351;SDS011;22382;44.768;17.206;2024-03-22T06:23:34;11.57;;;7.28;;
36351;SDS011;22382;44.768;17.206;2024-03-22T06:26:01;12.27;;;8.40;;
36351;SDS011;22382;44.768;17.206;2024-03-22T06:28:27;12.68;;;7.75;;
36351;SDS011;22382;44.768;17.206;2024-03-22T06:30:54;10.40;;;7.50;;
36351;SDS011;22382;44.768;17.206;2024-03-22T06:33:20;9.73;;;7.25;;
36351;SDS011;22382;44.768;17.206;2024-03-22T06:35:47;10.30;;;7.57;;
36351;SDS011;22382;44.768;17.206;2024-03-22T06:38:13;8.70;;;5.97;;
36351;SDS011;22382;44.768;17.206;2024-03-22T06:40:39;9.70;;;6.25;;
36351;SDS011;22382;44.768;17.206;2024-03-22T06:43:05;7.90;;;5.63;;
36351;SDS011;22382;44.768;17.206;2024-03-22T06:45:31;7.00;;;4.90;;
36351;SDS011;22382;44.768;17.206;2024-03-22T06:47:58;7.75;;;4.97;;
36351;SDS011;22382;44.768;17.206;2024-03-22T06:50:24;8.20;;;5.75;;
36351;SDS011;22382;44.768;17.206;2024-03-22T06:52:56;9.38;;;5.50;;
36351;SDS011;22382;44.768;17.206;2024-03-22T06:55:22;7.93;;;5.30;;
36351;SDS011;22382;44.768;17.206;2024-03-22T06:57:49;8.50;;;4.63;;
36351;SDS011;22382;44.768;17.206;2024-03-22T07:00:15;9.05;;;4.82;;
36351;SDS011;22382;44.768;17.206;2024-03-22T07:02:43;8.27;;;4.80;;
36351;SDS011;22382;44.768;17.206;2024-03-22T07:05:09;6.03;;;4.88;;
36351;SDS011;22382;44.768;17.206;2024-03-22T07:07:36;13.70;;;7.32;;
36351;SDS011;22382;44.768;17.206;2024-03-22T07:10:03;8.00;;;5.30;;
36351;SDS011;22382;44.768;17.206;2024-03-22T07:12:33;9.10;;;5.75;;
36351;SDS011;22382;44.768;17.206;2024-03-22T07:15:00;8.38;;;4.88;;
36351;SDS011;22382;44.768;17.206;2024-03-22T07:17:27;8.05;;;5.45;;
36351;SDS011;22382;44.768;17.206;2024-03-22T07:19:53;9.50;;;5.20;;
36351;SDS011;22382;44.768;17.206;2024-03-22T07:22:21;7.72;;;5.00;;
36351;SDS011;22382;44.768;17.206;2024-03-22T07:24:48;7.57;;;4.72;;
36351;SDS011;22382;44.768;17.206;2024-03-22T07:27:14;8.20;;;5.03;;
36351;SDS011;22382;44.768;17.206;2024-03-22T07:29:41;6.40;;;4.35;;
36351;SDS011;22382;44.768;17.206;2024-03-22T07:32:07;8.63;;;5.00;;
36351;SDS011;22382;44.768;17.206;2024-03-22T07:34:33;9.10;;;5.25;;
36351;SDS011;22382;44.768;17.206;2024-03-22T07:36:59;7.18;;;5.25;;
36351;SDS011;22382;44.768;17.206;2024-03-22T07:39:25;6.93;;;4.68;;
36351;SDS011;22382;44.768;17.206;2024-03-22T07:41:52;6.38;;;4.28;;
36351;SDS011;22382;44.768;17.206;2024-03-22T07:44:18;18.35;;;9.88;;
36351;SDS011;22382;44.768;17.206;2024-03-22T07:46:45;8.07;;;5.25;;
36351;SDS011;22382;44.768;17.206;2024-03-22T07:49:12;7.57;;;5.40;;
36351;SDS011;22382;44.768;17.206;2024-03-22T07:51:38;9.05;;;6.25;;
36351;SDS011;22382;44.768;17.206;2024-03-22T07:54:05;8.80;;;6.10;;
36351;SDS011;22382;44.768;17.206;2024-03-22T07:56:31;18.20;;;10.02;;
36351;SDS011;22382;44.768;17.206;2024-03-22T07:58:57;7.75;;;5.60;;
36351;SDS011;22382;44.768;17.206;2024-03-22T08:01:24;9.02;;;5.70;;
36351;SDS011;22382;44.768;17.206;2024-03-22T08:03:51;5.70;;;4.65;;
36351;SDS011;22382;44.768;17.206;2024-03-22T08:06:17;8.00;;;5.38;;
36351;SDS011;22382;44.768;17.206;2024-03-22T08:08:43;7.60;;;4.63;;
36351;SDS011;22382;44.768;17.206;2024-03-22T08:11:10;8.23;;;6.15;;
36351;SDS011;22382;44.768;17.206;2024-03-22T08:13:36;7.88;;;5.78;;
36351;SDS011;22382;44.768;17.206;2024-03-22T08:16:02;9.95;;;5.95;;
36351;SDS011;22382;44.768;17.206;2024-03-22T08:18:29;9.35;;;5.88;;
36351;SDS011;22382;44.768;17.206;2024-03-22T08:20:55;12.60;;;5.82;;
36351;SDS011;22382;44.768;17.206;2024-03-22T08:23:21;12.38;;;5.55;;
36351;SDS011;22382;44.768;17.206;2024-03-22T08:25:48;10.48;;;6.47;;
36351;SDS011;22382;44.768;17.206;2024-03-22T08:28:14;9.77;;;6.53;;
36351;SDS011;22382;44.768;17.206;2024-03-22T08:30:41;11.90;;;6.88;;
36351;SDS011;22382;44.768;17.206;2024-03-22T08:33:10;11.27;;;7.20;;
36351;SDS011;22382;44.768;17.206;2024-03-22T08:35:37;9.27;;;5.78;;
36351;SDS011;22382;44.768;17.206;2024-03-22T08:38:04;11.93;;;7.85;;
36351;SDS011;22382;44.768;17.206;2024-03-22T08:40:38;9.63;;;6.78;;
36351;SDS011;22382;44.768;17.206;2024-03-22T08:43:05;11.30;;;7.30;;
36351;SDS011;22382;44.768;17.206;2024-03-22T08:45:34;13.27;;;8.30;;
36351;SDS011;22382;44.768;17.206;2024-03-22T08:48:01;13.30;;;7.18;;
36351;SDS011;22382;44.768;17.206;2024-03-22T08:50:27;15.30;;;8.27;;
36351;SDS011;22382;44.768;17.206;2024-03-22T08:52:53;12.93;;;7.40;;
36351;SDS011;22382;44.768;17.206;2024-03-22T08:55:19;11.77;;;7.45;;
36351;SDS011;22382;44.768;17.206;2024-03-22T08:57:45;12.52;;;6.72;;
36351;SDS011;22382;44.768;17.206;2024-03-22T09:00:12;9.32;;;6.30;;
36351;SDS011;22382;44.768;17.206;2024-03-22T09:02:38;13.10;;;7.10;;
36351;SDS011;22382;44.768;17.206;2024-03-22T09:05:04;11.88;;;6.60;;
36351;SDS011;22382;44.768;17.206;2024-03-22T09:07:31;10.07;;;6.28;;
36351;SDS011;22382;44.768;17.206;2024-03-22T09:09:57;10.02;;;6.00;;
36351;SDS011;22382;44.768;17.206;2024-03-22T09:12:23;10.07;;;6.10;;
36351;SDS011;22382;44.768;17.206;2024-03-22T09:14:50;11.00;;;6.47;;
36351;SDS011;22382;44.768;17.206;2024-03-22T09:17:16;12.95;;;6.93;;
36351;SDS011;22382;44.768;17.206;2024-03-22T09:19:42;8.73;;;6.13;;
36351;SDS011;22382;44.768;17.206;2024-03-22T09:22:08;11.15;;;6.75;;
36351;SDS011;22382;44.768;17.206;2024-03-22T09:24:34;9.27;;;6.50;;
36351;SDS011;22382;44.768;17.206;2024-03-22T09:27:00;11.13;;;7.13;;
36351;SDS011;22382;44.768;17.206;2024-03-22T09:29:29;9.68;;;6.82;;
36351;SDS011;22382;44.768;17.206;2024-03-22T09:31:55;11.82;;;7.20;;
36351;SDS011;22382;44.768;17.206;2024-03-22T09:34:21;10.77;;;7.32;;
36351;SDS011;22382;44.768;17.206;2024-03-22T09:36:48;13.23;;;7.47;;
36351;SDS011;22382;44.768;17.206;2024-03-22T09:39:14;10.77;;;7.50;;
36351;SDS011;22382;44.768;17.206;2024-03-22T09:41:43;13.82;;;7.85;;
36351;SDS011;22382;44.768;17.206;2024-03-22T09:44:13;13.82;;;8.38;;
36351;SDS011;22382;44.768;17.206;2024-03-22T09:46:42;12.00;;;8.15;;
36351;SDS011;22382;44.768;17.206;2024-03-22T09:49:10;10.57;;;6.05;;
36351;SDS011;22382;44.768;17.206;2024-03-22T09:51:37;11.32;;;7.43;;
36351;SDS011;22382;44.768;17.206;2024-03-22T09:54:04;11.48;;;7.22;;
36351;SDS011;22382;44.768;17.206;2024-03-22T09:56:31;10.95;;;7.20;;
36351;SDS011;22382;44.768;17.206;2024-03-22T09:58:57;11.40;;;6.72;;
36351;SDS011;22382;44.768;17.206;2024-03-22T10:01:24;13.05;;;7.70;;
36351;SDS011;22382;44.768;17.206;2024-03-22T10:03:53;12.88;;;8.25;;
36351;SDS011;22382;44.768;17.206;2024-03-22T10:06:20;14.90;;;7.47;;
36351;SDS011;22382;44.768;17.206;2024-03-22T10:08:48;9.95;;;7.07;;
36351;SDS011;22382;44.768;17.206;2024-03-22T10:11:14;9.45;;;7.07;;
36351;SDS011;22382;44.768;17.206;2024-03-22T10:13:40;10.73;;;6.53;;
36351;SDS011;22382;44.768;17.206;2024-03-22T10:16:06;10.23;;;7.13;;
36351;SDS011;22382;44.768;17.206;2024-03-22T10:18:33;9.57;;;6.28;;
36351;SDS011;22382;44.768;17.206;2024-03-22T10:21:03;10.60;;;6.65;;
36351;SDS011;22382;44.768;17.206;2024-03-22T10:23:30;11.48;;;7.30;;
36351;SDS011;22382;44.768;17.206;2024-03-22T10:25:57;9.13;;;6.38;;
36351;SDS011;22382;44.768;17.206;2024-03-22T10:28:26;11.68;;;7.22;;
36351;SDS011;22382;44.768;17.206;2024-03-22T10:30:52;10.68;;;6.90;;
36351;SDS011;22382;44.768;17.206;2024-03-22T10:33:19;11.73;;;6.20;;
36351;SDS011;22382;44.768;17.206;2024-03-22T10:35:52;10.15;;;6.72;;
36351;SDS011;22382;44.768;17.206;2024-03-22T10:38:20;7.68;;;6.28;;
36351;SDS011;22382;44.768;17.206;2024-03-22T10:40:47;11.35;;;7.00;;
36351;SDS011;22382;44.768;17.206;2024-03-22T10:43:14;10.30;;;6.70;;
36351;SDS011;22382;44.768;17.206;2024-03-22T10:45:41;8.50;;;6.40;;
36351;SDS011;22382;44.768;17.206;2024-03-22T10:48:11;8.65;;;5.53;;
36351;SDS011;22382;44.768;17.206;2024-03-22T10:50:38;9.50;;;6.63;;
36351;SDS011;22382;44.768;17.206;2024-03-22T10:53:11;11.05;;;6.95;;
36351;SDS011;22382;44.768;17.206;2024-03-22T10:55:49;11.00;;;6.55;;
36351;SDS011;22382;44.768;17.206;2024-03-22T10:58:18;14.38;;;7.10;;
36351;SDS011;22382;44.768;17.206;2024-03-22T11:00:47;11.88;;;7.43;;
36351;SDS011;22382;44.768;17.206;2024-03-22T11:03:17;10.60;;;8.23;;
36351;SDS011;22382;44.768;17.206;2024-03-22T11:05:46;10.65;;;7.85;;
36351;SDS011;22382;44.768;17.206;2024-03-22T11:08:13;12.65;;;7.82;;
36351;SDS011;22382;44.768;17.206;2024-03-22T11:10:48;12.30;;;10.05;;
36351;SDS011;22382;44.768;17.206;2024-03-22T11:13:15;11.45;;;7.55;;
36351;SDS011;22382;44.768;17.206;2024-03-22T11:15:42;11.32;;;7.97;;
36351;SDS011;22382;44.768;17.206;2024-03-22T11:18:10;10.20;;;6.82;;
36351;SDS011;22382;44.768;17.206;2024-03-22T11:20:36;14.57;;;7.85;;
36351;SDS011;22382;44.768;17.206;2024-03-22T11:23:06;9.10;;;7.07;;
36351;SDS011;22382;44.768;17.206;2024-03-22T11:25:32;11.85;;;7.97;;
36351;SDS011;22382;44.768;17.206;2024-03-22T11:27:59;11.23;;;7.88;;
36351;SDS011;22382;44.768;17.206;2024-03-22T11:30:28;9.77;;;7.45;;
36351;SDS011;22382;44.768;17.206;2024-03-22T11:32:55;13.07;;;7.88;;
36351;SDS011;22382;44.768;17.206;2024-03-22T11:35:22;13.43;;;8.65;;
36351;SDS011;22382;44.768;17.206;2024-03-22T11:37:49;11.32;;;7.45;;
36351;SDS011;22382;44.768;17.206;2024-03-22T11:40:16;13.73;;;9.20;;
36351;SDS011;22382;44.768;17.206;2024-03-22T11:42:45;11.63;;;6.88;;
36351;SDS011;22382;44.768;17.206;2024-03-22T11:45:15;9.25;;;6.72;;
36351;SDS011;22382;44.768;17.206;2024-03-22T11:47:44;12.27;;;8.32;;
36351;SDS011;22382;44.768;17.206;2024-03-22T11:50:12;12.60;;;6.93;;
36351;SDS011;22382;44.768;17.206;2024-03-22T11:52:42;9.55;;;6.22;;
36351;SDS011;22382;44.768;17.206;2024-03-22T11:55:09;10.77;;;6.80;;
36351;SDS011;22382;44.768;17.206;2024-03-22T11:57:36;13.02;;;7.05;;
36351;SDS011;22382;44.768;17.206;2024-03-22T12:00:03;9.23;;;6.25;;
36351;SDS011;22382;44.768;17.206;2024-03-22T12:02:37;8.77;;;6.80;;
36351;SDS011;22382;44.768;17.206;2024-03-22T12:05:04;7.88;;;5.95;;
36351;SDS011;22382;44.768;17.206;2024-03-22T12:07:31;10.73;;;6.95;;
36351;SDS011;22382;44.768;17.206;2024-03-22T12:09:58;8.50;;;6.47;;
36351;SDS011;22382;44.768;17.206;2024-03-22T12:12:24;11.02;;;7.10;;
36351;SDS011;22382;44.768;17.206;2024-03-22T12:14:51;11.70;;;7.28;;
36351;SDS011;22382;44.768;17.206;2024-03-22T12:17:17;10.80;;;7.00;;
36351;SDS011;22382;44.768;17.206;2024-03-22T12:19:43;9.23;;;5.63;;
36351;SDS011;22382;44.768;17.206;2024-03-22T12:22:10;7.30;;;6.45;;
36351;SDS011;22382;44.768;17.206;2024-03-22T12:24:36;10.00;;;7.18;;
36351;SDS011;22382;44.768;17.206;2024-03-22T12:27:03;7.78;;;5.38;;
36351;SDS011;22382;44.768;17.206;2024-03-22T12:29:29;6.63;;;4.88;;
36351;SDS011;22382;44.768;17.206;2024-03-22T12:31:58;11.45;;;6.47;;
36351;SDS011;22382;44.768;17.206;2024-03-22T12:34:29;9.70;;;6.88;;
36351;SDS011;22382;44.768;17.206;2024-03-22T12:36:57;10.23;;;6.43;;
36351;SDS011;22382;44.768;17.206;2024-03-22T12:39:24;7.13;;;5.55;;
36351;SDS011;22382;44.768;17.206;2024-03-22T12:41:50;11.07;;;6.97;;
36351;SDS011;22382;44.768;17.206;2024-03-22T12:44:17;9.07;;;6.78;;
36351;SDS011;22382;44.768;17.206;2024-03-22T12:46:43;9.85;;;6.28;;
36351;SDS011;22382;44.768;17.206;2024-03-22T12:49:10;12.35;;;7.10;;
36351;SDS011;22382;44.768;17.206;2024-03-22T12:51:37;13.18;;;7.28;;
36351;SDS011;22382;44.768;17.206;2024-03-22T12:54:03;7.35;;;5.60;;
36351;SDS011;22382;44.768;17.206;2024-03-22T12:56:30;7.38;;;5.28;;
36351;SDS011;22382;44.768;17.206;2024-03-22T12:58:58;8.82;;;5.80;;
36351;SDS011;22382;44.768;17.206;2024-03-22T13:01:24;8.75;;;5.25;;
36351;SDS011;22382;44.768;17.206;2024-03-22T13:03:50;8.25;;;5.82;;
36351;SDS011;22382;44.768;17.206;2024-03-22T13:06:17;11.38;;;6.43;;
36351;SDS011;22382;44.768;17.206;2024-03-22T13:08:43;8.90;;;6.50;;
36351;SDS011;22382;44.768;17.206;2024-03-22T13:11:09;11.32;;;7.13;;
36351;SDS011;22382;44.768;17.206;2024-03-22T13:13:35;10.52;;;7.53;;
36351;SDS011;22382;44.768;17.206;2024-03-22T13:16:01;11.45;;;7.45;;
36351;SDS011;22382;44.768;17.206;2024-03-22T13:18:29;12.75;;;7.78;;
36351;SDS011;22382;44.768;17.206;2024-03-22T13:20:55;10.82;;;7.80;;
36351;SDS011;22382;44.768;17.206;2024-03-22T13:23:21;10.90;;;8.48;;
36351;SDS011;22382;44.768;17.206;2024-03-22T13:25:48;11.45;;;7.35;;
36351;SDS011;22382;44.768;17.206;2024-03-22T13:28:14;12.68;;;8.52;;
36351;SDS011;22382;44.768;17.206;2024-03-22T13:30:45;11.60;;;8.05;;
36351;SDS011;22382;44.768;17.206;2024-03-22T13:33:11;13.52;;;7.90;;
36351;SDS011;22382;44.768;17.206;2024-03-22T13:35:38;14.52;;;7.60;;
36351;SDS011;22382;44.768;17.206;2024-03-22T13:38:06;12.27;;;7.80;;
36351;SDS011;22382;44.768;17.206;2024-03-22T13:40:38;10.75;;;8.43;;
36351;SDS011;22382;44.768;17.206;2024-03-22T13:43:06;11.15;;;7.88;;
36351;SDS011;22382;44.768;17.206;2024-03-22T13:45:32;10.90;;;7.38;;
36351;SDS011;22382;44.768;17.206;2024-03-22T13:48:09;9.82;;;6.05;;
36351;SDS011;22382;44.768;17.206;2024-03-22T13:50:38;8.52;;;5.20;;
36351;SDS011;22382;44.768;17.206;2024-03-22T13:53:04;11.05;;;7.35;;
36351;SDS011;22382;44.768;17.206;2024-03-22T13:55:30;8.93;;;6.03;;
36351;SDS011;22382;44.768;17.206;2024-03-22T13:57:57;9.23;;;5.50;;
36351;SDS011;22382;44.768;17.206;2024-03-22T14:00:24;8.60;;;5.45;;
36351;SDS011;22382;44.768;17.206;2024-03-22T14:02:51;12.82;;;7.10;;
36351;SDS011;22382;44.768;17.206;2024-03-22T14:05:21;10.25;;;6.93;;
36351;SDS011;22382;44.768;17.206;2024-03-22T14:07:49;11.85;;;7.78;;
36351;SDS011;22382;44.768;17.206;2024-03-22T14:10:16;8.40;;;6.47;;
36351;SDS011;22382;44.768;17.206;2024-03-22T14:12:43;10.93;;;7.80;;
36351;SDS011;22382;44.768;17.206;2024-03-22T14:15:11;10.45;;;6.97;;
36351;SDS011;22382;44.768;17.206;2024-03-22T14:17:37;11.73;;;7.57;;
36351;SDS011;22382;44.768;17.206;2024-03-22T14:20:03;10.10;;;7.68;;
36351;SDS011;22382;44.768;17.206;2024-03-22T14:22:35;11.48;;;7.70;;